sensor_id;sensor_type;location;lat;lon;timestamp;pressure;altitude;pressure_sealevel;temperature;humidity
84593;BME280;74832;51.656;5.298;2024-01-30T00:00:01;102647.76;;;17.35;59.28
84593;BME280;74832;51.656;5.298;2024-01-30T00:00:32;102649.77;;;17.33;59.34
84593;BME280;74832;51.656;5.298;2024-01-30T00:01:02;102650.53;;;17.29;59.41
84593;BME280;74832;51.656;5.298;2024-01-30T00:01:33;102650.23;;;17.28;59.44
84593;BME280;74832;51.656;5.298;2024-01-30T00:02:03;102650.70;;;17.30;59.37
84593;BME280;74832;51.656;5.298;2024-01-30T00:02:34;102649.74;;;17.25;59.51
84593;BME280;74832;51.656;5.298;2024-01-30T00:03:04;102651.47;;;17.24;59.54
84593;BME280;74832;51.656;5.298;2024-01-30T00:03:35;102647.95;;;17.25;59.52
84593;BME280;74832;51.656;5.298;2024-01-30T00:04:05;102648.46;;;17.25;59.53
84593;BME280;74832;51.656;5.298;2024-01-30T00:04:36;102649.56;;;17.26;59.52
84593;BME280;74832;51.656;5.298;2024-01-30T00:05:07;102651.98;;;17.24;59.51
84593;BME280;74832;51.656;5.298;2024-01-30T00:05:37;102648.23;;;17.28;59.43
84593;BME280;74832;51.656;5.298;2024-01-30T00:06:07;102648.42;;;17.33;59.35
84593;BME280;74832;51.656;5.298;2024-01-30T00:06:38;102650.31;;;17.35;59.26
84593;BME280;74832;51.656;5.298;2024-01-30T00:07:08;102649.15;;;17.30;59.30
84593;BME280;74832;51.656;5.298;2024-01-30T00:07:39;102650.39;;;17.29;59.33
84593;BME280;74832;51.656;5.298;2024-01-30T00:08:09;102650.11;;;17.27;59.44
84593;BME280;74832;51.656;5.298;2024-01-30T00:08:40;102651.48;;;17.24;59.51
84593;BME280;74832;51.656;5.298;2024-01-30T00:09:10;102650.18;;;17.23;59.45
84593;BME280;74832;51.656;5.298;2024-01-30T00:09:40;102653.07;;;17.29;59.42
84593;BME280;74832;51.656;5.298;2024-01-30T00:10:15;102649.70;;;17.24;59.49
84593;BME280;74832;51.656;5.298;2024-01-30T00:10:45;102646.48;;;17.24;59.49
84593;BME280;74832;51.656;5.298;2024-01-30T00:11:16;102647.89;;;17.25;59.42
84593;BME280;74832;51.656;5.298;2024-01-30T00:11:46;102649.75;;;17.20;59.56
84593;BME280;74832;51.656;5.298;2024-01-30T00:12:17;102645.81;;;17.25;59.47
84593;BME280;74832;51.656;5.298;2024-01-30T00:12:47;102646.66;;;17.24;59.54
84593;BME280;74832;51.656;5.298;2024-01-30T00:13:17;102647.29;;;17.28;59.42
84593;BME280;74832;51.656;5.298;2024-01-30T00:13:48;102645.65;;;17.26;59.34
84593;BME280;74832;51.656;5.298;2024-01-30T00:14:18;102642.60;;;17.23;59.49
84593;BME280;74832;51.656;5.298;2024-01-30T00:14:49;102642.14;;;17.23;59.49
84593;BME280;74832;51.656;5.298;2024-01-30T00:15:19;102642.94;;;17.22;59.56
84593;BME280;74832;51.656;5.298;2024-01-30T00:15:49;102639.81;;;17.24;59.46
84593;BME280;74832;51.656;5.298;2024-01-30T00:16:20;102642.42;;;17.22;59.52
84593;BME280;74832;51.656;5.298;2024-01-30T00:16:51;102638.06;;;17.24;59.48
84593;BME280;74832;51.656;5.298;2024-01-30T00:17:21;102637.67;;;17.19;59.55
84593;BME280;74832;51.656;5.298;2024-01-30T00:17:51;102643.12;;;17.15;59.65
84593;BME280;74832;51.656;5.298;2024-01-30T00:18:22;102638.90;;;17.21;59.55
84593;BME280;74832;51.656;5.298;2024-01-30T00:18:53;102638.17;;;17.17;59.62
84593;BME280;74832;51.656;5.298;2024-01-30T00:19:23;102641.25;;;17.24;59.43
84593;BME280;74832;51.656;5.298;2024-01-30T00:19:54;102639.20;;;17.27;59.35
84593;BME280;74832;51.656;5.298;2024-01-30T00:20:24;102636.92;;;17.27;59.39
84593;BME280;74832;51.656;5.298;2024-01-30T00:20:54;102636.56;;;17.29;59.35
84593;BME280;74832;51.656;5.298;2024-01-30T00:21:25;102636.37;;;17.32;59.17
84593;BME280;74832;51.656;5.298;2024-01-30T00:21:55;102636.70;;;17.27;59.34
84593;BME280;74832;51.656;5.298;2024-01-30T00:22:26;102639.83;;;17.31;59.21
84593;BME280;74832;51.656;5.298;2024-01-30T00:22:56;102638.65;;;17.35;59.14
84593;BME280;74832;51.656;5.298;2024-01-30T00:23:27;102635.77;;;17.29;59.24
84593;BME280;74832;51.656;5.298;2024-01-30T00:23:57;102638.00;;;17.25;59.31
84593;BME280;74832;51.656;5.298;2024-01-30T00:24:27;102636.08;;;17.25;59.32
84593;BME280;74832;51.656;5.298;2024-01-30T00:24:58;102638.96;;;17.26;59.33
84593;BME280;74832;51.656;5.298;2024-01-30T00:25:28;102636.66;;;17.27;59.28
84593;BME280;74832;51.656;5.298;2024-01-30T00:25:58;102636.99;;;17.22;59.41
84593;BME280;74832;51.656;5.298;2024-01-30T00:26:29;102637.67;;;17.23;59.40
84593;BME280;74832;51.656;5.298;2024-01-30T00:26:59;102639.96;;;17.23;59.41
84593;BME280;74832;51.656;5.298;2024-01-30T00:27:29;102638.65;;;17.20;59.49
84593;BME280;74832;51.656;5.298;2024-01-30T00:28:00;102639.30;;;17.19;59.50
84593;BME280;74832;51.656;5.298;2024-01-30T00:28:30;102639.56;;;17.24;59.39
84593;BME280;74832;51.656;5.298;2024-01-30T00:29:01;102636.74;;;17.23;59.39
84593;BME280;74832;51.656;5.298;2024-01-30T00:29:31;102635.84;;;17.25;59.31
84593;BME280;74832;51.656;5.298;2024-01-30T00:30:02;102634.75;;;17.26;59.30
84593;BME280;74832;51.656;5.298;2024-01-30T00:30:32;102636.99;;;17.15;59.54
84593;BME280;74832;51.656;5.298;2024-01-30T00:31:07;102633.84;;;17.18;59.50
84593;BME280;74832;51.656;5.298;2024-01-30T00:31:38;102630.44;;;17.15;59.57
84593;BME280;74832;51.656;5.298;2024-01-30T00:32:08;102635.32;;;17.13;59.70
84593;BME280;74832;51.656;5.298;2024-01-30T00:32:39;102632.51;;;17.16;59.58
84593;BME280;74832;51.656;5.298;2024-01-30T00:33:09;102634.59;;;17.08;59.72
84593;BME280;74832;51.656;5.298;2024-01-30T00:33:40;102629.97;;;17.10;59.75
84593;BME280;74832;51.656;5.298;2024-01-30T00:34:11;102633.09;;;17.15;59.60
84593;BME280;74832;51.656;5.298;2024-01-30T00:34:41;102633.38;;;17.16;59.56
84593;BME280;74832;51.656;5.298;2024-01-30T00:35:12;102633.36;;;17.14;59.59
84593;BME280;74832;51.656;5.298;2024-01-30T00:35:42;102631.22;;;17.09;59.70
84593;BME280;74832;51.656;5.298;2024-01-30T00:36:13;102635.37;;;17.11;59.69
84593;BME280;74832;51.656;5.298;2024-01-30T00:36:43;102631.28;;;17.10;59.73
84593;BME280;74832;51.656;5.298;2024-01-30T00:37:14;102630.34;;;17.07;59.79
84593;BME280;74832;51.656;5.298;2024-01-30T00:37:44;102628.45;;;17.13;59.62
84593;BME280;74832;51.656;5.298;2024-01-30T00:38:15;102627.04;;;17.15;59.55
84593;BME280;74832;51.656;5.298;2024-01-30T00:38:45;102626.88;;;17.13;59.63
84593;BME280;74832;51.656;5.298;2024-01-30T00:39:16;102627.02;;;17.18;59.50
84593;BME280;74832;51.656;5.298;2024-01-30T00:39:46;102625.68;;;17.08;59.68
84593;BME280;74832;51.656;5.298;2024-01-30T00:40:17;102625.71;;;17.08;59.72
84593;BME280;74832;51.656;5.298;2024-01-30T00:40:47;102628.94;;;17.13;59.63
84593;BME280;74832;51.656;5.298;2024-01-30T00:41:18;102626.94;;;17.11;59.60
84593;BME280;74832;51.656;5.298;2024-01-30T00:41:48;102627.91;;;17.12;59.60
84593;BME280;74832;51.656;5.298;2024-01-30T00:42:19;102627.52;;;17.16;59.52
84593;BME280;74832;51.656;5.298;2024-01-30T00:42:49;102627.31;;;17.20;59.39
84593;BME280;74832;51.656;5.298;2024-01-30T00:43:19;102626.71;;;17.14;59.52
84593;BME280;74832;51.656;5.298;2024-01-30T00:43:50;102630.28;;;17.19;59.45
84593;BME280;74832;51.656;5.298;2024-01-30T00:44:20;102627.27;;;17.13;59.51
84593;BME280;74832;51.656;5.298;2024-01-30T00:44:50;102625.55;;;17.18;59.44
84593;BME280;74832;51.656;5.298;2024-01-30T00:45:21;102626.47;;;17.19;59.40
84593;BME280;74832;51.656;5.298;2024-01-30T00:45:51;102625.21;;;17.14;59.44
84593;BME280;74832;51.656;5.298;2024-01-30T00:46:22;102624.23;;;17.17;59.41
84593;BME280;74832;51.656;5.298;2024-01-30T00:46:52;102625.84;;;17.14;59.52
84593;BME280;74832;51.656;5.298;2024-01-30T00:47:22;102623.64;;;17.07;59.62
84593;BME280;74832;51.656;5.298;2024-01-30T00:47:53;102617.87;;;17.03;59.77
84593;BME280;74832;51.656;5.298;2024-01-30T00:48:23;102622.65;;;17.06;59.74
84593;BME280;74832;51.656;5.298;2024-01-30T00:48:53;102623.56;;;17.03;59.81
84593;BME280;74832;51.656;5.298;2024-01-30T00:49:24;102622.60;;;17.03;59.75
84593;BME280;74832;51.656;5.298;2024-01-30T00:49:54;102624.47;;;17.05;59.75
84593;BME280;74832;51.656;5.298;2024-01-30T00:50:25;102618.62;;;17.10;59.64
84593;BME280;74832;51.656;5.298;2024-01-30T00:50:55;102619.42;;;17.14;59.51
84593;BME280;74832;51.656;5.298;2024-01-30T00:51:25;102621.76;;;17.12;59.55
84593;BME280;74832;51.656;5.298;2024-01-30T00:51:56;102617.46;;;17.08;59.67
84593;BME280;74832;51.656;5.298;2024-01-30T00:52:26;102618.52;;;17.04;59.71
84593;BME280;74832;51.656;5.298;2024-01-30T00:52:57;102620.77;;;17.05;59.69
84593;BME280;74832;51.656;5.298;2024-01-30T00:53:27;102619.06;;;17.01;59.79
84593;BME280;74832;51.656;5.298;2024-01-30T00:53:57;102616.12;;;17.02;59.79
84593;BME280;74832;51.656;5.298;2024-01-30T00:54:28;102619.79;;;17.06;59.69
84593;BME280;74832;51.656;5.298;2024-01-30T00:54:58;102620.78;;;17.05;59.69
84593;BME280;74832;51.656;5.298;2024-01-30T00:55:28;102617.68;;;17.09;59.61
84593;BME280;74832;51.656;5.298;2024-01-30T00:55:59;102617.14;;;17.09;59.58
84593;BME280;74832;51.656;5.298;2024-01-30T00:56:29;102618.66;;;17.08;59.61
84593;BME280;74832;51.656;5.298;2024-01-30T00:57:00;102617.24;;;17.05;59.65
84593;BME280;74832;51.656;5.298;2024-01-30T00:57:30;102618.73;;;17.03;59.73
84593;BME280;74832;51.656;5.298;2024-01-30T00:58:00;102616.40;;;17.02;59.74
84593;BME280;74832;51.656;5.298;2024-01-30T00:58:31;102617.35;;;17.10;59.60
84593;BME280;74832;51.656;5.298;2024-01-30T00:59:01;102615.53;;;17.04;59.64
84593;BME280;74832;51.656;5.298;2024-01-30T00:59:32;102620.62;;;17.09;59.61
84593;BME280;74832;51.656;5.298;2024-01-30T01:00:02;102618.04;;;17.09;59.58
84593;BME280;74832;51.656;5.298;2024-01-30T01:00:33;102618.03;;;17.08;59.58
84593;BME280;74832;51.656;5.298;2024-01-30T01:01:03;102621.35;;;17.09;59.56
84593;BME280;74832;51.656;5.298;2024-01-30T01:01:34;102616.78;;;17.07;59.58
84593;BME280;74832;51.656;5.298;2024-01-30T01:02:04;102617.20;;;17.05;59.62
84593;BME280;74832;51.656;5.298;2024-01-30T01:02:35;102615.58;;;17.07;59.60
84593;BME280;74832;51.656;5.298;2024-01-30T01:03:06;102618.71;;;17.07;59.59
84593;BME280;74832;51.656;5.298;2024-01-30T01:03:36;102616.09;;;17.09;59.52
84593;BME280;74832;51.656;5.298;2024-01-30T01:04:07;102616.36;;;17.04;59.61
84593;BME280;74832;51.656;5.298;2024-01-30T01:04:37;102615.46;;;17.05;59.63
84593;BME280;74832;51.656;5.298;2024-01-30T01:05:08;102617.85;;;17.05;59.66
84593;BME280;74832;51.656;5.298;2024-01-30T01:05:38;102613.60;;;17.05;59.60
84593;BME280;74832;51.656;5.298;2024-01-30T01:06:08;102616.62;;;17.05;59.64
84593;BME280;74832;51.656;5.298;2024-01-30T01:06:39;102619.36;;;16.97;59.80
84593;BME280;74832;51.656;5.298;2024-01-30T01:07:10;102614.79;;;16.97;59.86
84593;BME280;74832;51.656;5.298;2024-01-30T01:07:40;102612.23;;;17.03;59.70
84593;BME280;74832;51.656;5.298;2024-01-30T01:08:10;102617.77;;;17.00;59.72
84593;BME280;74832;51.656;5.298;2024-01-30T01:08:41;102615.51;;;17.02;59.71
84593;BME280;74832;51.656;5.298;2024-01-30T01:09:11;102617.15;;;17.01;59.71
84593;BME280;74832;51.656;5.298;2024-01-30T01:09:42;102616.29;;;17.04;59.64
84593;BME280;74832;51.656;5.298;2024-01-30T01:10:12;102615.68;;;17.03;59.67
84593;BME280;74832;51.656;5.298;2024-01-30T01:10:43;102614.96;;;17.10;59.45
84593;BME280;74832;51.656;5.298;2024-01-30T01:11:13;102617.49;;;17.08;59.51
84593;BME280;74832;51.656;5.298;2024-01-30T01:11:43;102617.01;;;17.06;59.55
84593;BME280;74832;51.656;5.298;2024-01-30T01:12:14;102617.51;;;17.06;59.57
84593;BME280;74832;51.656;5.298;2024-01-30T01:12:45;102614.77;;;17.01;59.73
84593;BME280;74832;51.656;5.298;2024-01-30T01:13:15;102612.54;;;17.00;59.75
84593;BME280;74832;51.656;5.298;2024-01-30T01:13:46;102611.47;;;16.95;59.79
84593;BME280;74832;51.656;5.298;2024-01-30T01:14:16;102613.29;;;17.03;59.66
84593;BME280;74832;51.656;5.298;2024-01-30T01:14:47;102609.58;;;17.05;59.57
84593;BME280;74832;51.656;5.298;2024-01-30T01:15:17;102610.12;;;17.03;59.58
84593;BME280;74832;51.656;5.298;2024-01-30T01:15:48;102611.05;;;17.02;59.68
84593;BME280;74832;51.656;5.298;2024-01-30T01:16:18;102612.36;;;17.00;59.70
84593;BME280;74832;51.656;5.298;2024-01-30T01:16:48;102608.67;;;17.06;59.57
84593;BME280;74832;51.656;5.298;2024-01-30T01:17:19;102611.71;;;17.02;59.63
84593;BME280;74832;51.656;5.298;2024-01-30T01:17:49;102608.42;;;17.05;59.52
84593;BME280;74832;51.656;5.298;2024-01-30T01:18:19;102609.55;;;17.09;59.43
84593;BME280;74832;51.656;5.298;2024-01-30T01:18:50;102609.58;;;17.02;59.54
84593;BME280;74832;51.656;5.298;2024-01-30T01:19:20;102609.07;;;17.02;59.60
84593;BME280;74832;51.656;5.298;2024-01-30T01:19:51;102609.17;;;16.99;59.68
84593;BME280;74832;51.656;5.298;2024-01-30T01:20:21;102609.51;;;16.98;59.69
84593;BME280;74832;51.656;5.298;2024-01-30T01:20:51;102610.42;;;16.99;59.68
84593;BME280;74832;51.656;5.298;2024-01-30T01:21:22;102611.48;;;16.99;59.68
84593;BME280;74832;51.656;5.298;2024-01-30T01:21:52;102610.96;;;16.98;59.74
84593;BME280;74832;51.656;5.298;2024-01-30T01:22:23;102611.05;;;16.96;59.75
84593;BME280;74832;51.656;5.298;2024-01-30T01:22:53;102608.40;;;16.93;59.81
84593;BME280;74832;51.656;5.298;2024-01-30T01:23:24;102608.51;;;17.00;59.70
84593;BME280;74832;51.656;5.298;2024-01-30T01:23:54;102606.16;;;16.99;59.65
84593;BME280;74832;51.656;5.298;2024-01-30T01:24:24;102610.29;;;16.98;59.70
84593;BME280;74832;51.656;5.298;2024-01-30T01:24:55;102606.09;;;17.01;59.62
84593;BME280;74832;51.656;5.298;2024-01-30T01:25:25;102608.30;;;16.95;59.73
84593;BME280;74832;51.656;5.298;2024-01-30T01:25:55;102607.70;;;16.96;59.73
84593;BME280;74832;51.656;5.298;2024-01-30T01:26:26;102609.34;;;16.97;59.72
84593;BME280;74832;51.656;5.298;2024-01-30T01:26:57;102603.77;;;16.93;59.75
84593;BME280;74832;51.656;5.298;2024-01-30T01:27:28;102608.17;;;16.95;59.77
84593;BME280;74832;51.656;5.298;2024-01-30T01:27:58;102606.12;;;17.00;59.65
84593;BME280;74832;51.656;5.298;2024-01-30T01:28:28;102609.07;;;16.99;59.66
84593;BME280;74832;51.656;5.298;2024-01-30T01:28:59;102607.59;;;16.96;59.73
84593;BME280;74832;51.656;5.298;2024-01-30T01:29:29;102605.40;;;17.00;59.64
84593;BME280;74832;51.656;5.298;2024-01-30T01:30:00;102609.60;;;16.97;59.66
84593;BME280;74832;51.656;5.298;2024-01-30T01:30:30;102606.52;;;16.99;59.62
84593;BME280;74832;51.656;5.298;2024-01-30T01:31:00;102608.11;;;16.97;59.65
84593;BME280;74832;51.656;5.298;2024-01-30T01:31:31;102606.69;;;16.93;59.78
84593;BME280;74832;51.656;5.298;2024-01-30T01:32:01;102610.81;;;16.98;59.63
84593;BME280;74832;51.656;5.298;2024-01-30T01:32:32;102603.92;;;17.02;59.50
84593;BME280;74832;51.656;5.298;2024-01-30T01:33:02;102605.19;;;17.02;59.50
84593;BME280;74832;51.656;5.298;2024-01-30T01:33:33;102606.50;;;16.97;59.67
84593;BME280;74832;51.656;5.298;2024-01-30T01:34:03;102602.32;;;16.94;59.68
84593;BME280;74832;51.656;5.298;2024-01-30T01:34:34;102605.10;;;16.94;59.69
84593;BME280;74832;51.656;5.298;2024-01-30T01:35:04;102602.13;;;16.95;59.70
84593;BME280;74832;51.656;5.298;2024-01-30T01:35:35;102598.66;;;16.95;59.67
84593;BME280;74832;51.656;5.298;2024-01-30T01:36:05;102601.10;;;16.97;59.63
84593;BME280;74832;51.656;5.298;2024-01-30T01:36:36;102599.00;;;16.95;59.64
84593;BME280;74832;51.656;5.298;2024-01-30T01:37:06;102596.16;;;17.03;59.46
84593;BME280;74832;51.656;5.298;2024-01-30T01:37:37;102595.74;;;16.95;59.65
84593;BME280;74832;51.656;5.298;2024-01-30T01:38:07;102599.10;;;16.97;59.65
84593;BME280;74832;51.656;5.298;2024-01-30T01:38:38;102595.66;;;16.89;59.76
84593;BME280;74832;51.656;5.298;2024-01-30T01:39:08;102599.87;;;16.90;59.79
84593;BME280;74832;51.656;5.298;2024-01-30T01:39:39;102596.55;;;16.89;59.84
84593;BME280;74832;51.656;5.298;2024-01-30T01:40:09;102595.53;;;16.86;59.89
84593;BME280;74832;51.656;5.298;2024-01-30T01:40:40;102595.28;;;16.89;59.82
84593;BME280;74832;51.656;5.298;2024-01-30T01:41:10;102597.25;;;16.93;59.72
84593;BME280;74832;51.656;5.298;2024-01-30T01:41:41;102591.77;;;16.91;59.73
84593;BME280;74832;51.656;5.298;2024-01-30T01:42:11;102591.08;;;16.93;59.69
84593;BME280;74832;51.656;5.298;2024-01-30T01:42:42;102592.44;;;16.87;59.82
84593;BME280;74832;51.656;5.298;2024-01-30T01:43:12;102588.23;;;16.81;59.97
84593;BME280;74832;51.656;5.298;2024-01-30T01:43:42;102592.25;;;16.82;60.02
84593;BME280;74832;51.656;5.298;2024-01-30T01:44:13;102593.96;;;16.92;59.73
84593;BME280;74832;51.656;5.298;2024-01-30T01:44:43;102590.00;;;16.97;59.57
84593;BME280;74832;51.656;5.298;2024-01-30T01:45:13;102591.40;;;16.91;59.69
84593;BME280;74832;51.656;5.298;2024-01-30T01:45:44;102590.53;;;16.92;59.68
84593;BME280;74832;51.656;5.298;2024-01-30T01:46:15;102589.04;;;16.91;59.74
84593;BME280;74832;51.656;5.298;2024-01-30T01:46:46;102590.02;;;16.91;59.70
84593;BME280;74832;51.656;5.298;2024-01-30T01:47:16;102589.13;;;16.90;59.71
84593;BME280;74832;51.656;5.298;2024-01-30T01:47:50;102591.37;;;16.94;59.58
84593;BME280;74832;51.656;5.298;2024-01-30T01:48:20;102592.65;;;16.91;59.63
84593;BME280;74832;51.656;5.298;2024-01-30T01:48:51;102587.15;;;16.88;59.79
84593;BME280;74832;51.656;5.298;2024-01-30T01:49:23;102584.59;;;16.88;59.76
84593;BME280;74832;51.656;5.298;2024-01-30T01:49:54;102589.59;;;16.89;59.75
84593;BME280;74832;51.656;5.298;2024-01-30T01:50:25;102591.12;;;16.83;59.87
84593;BME280;74832;51.656;5.298;2024-01-30T01:50:56;102590.52;;;16.87;59.81
84593;BME280;74832;51.656;5.298;2024-01-30T01:51:27;102590.12;;;16.88;59.79
84593;BME280;74832;51.656;5.298;2024-01-30T01:52:00;102589.59;;;16.92;59.67
84593;BME280;74832;51.656;5.298;2024-01-30T01:52:31;102587.25;;;16.88;59.75
84593;BME280;74832;51.656;5.298;2024-01-30T01:53:01;102589.87;;;16.85;59.82
84593;BME280;74832;51.656;5.298;2024-01-30T01:53:32;102587.44;;;16.88;59.74
84593;BME280;74832;51.656;5.298;2024-01-30T01:54:04;102590.13;;;16.90;59.68
84593;BME280;74832;51.656;5.298;2024-01-30T01:54:34;102585.77;;;16.89;59.70
84593;BME280;74832;51.656;5.298;2024-01-30T01:55:05;102589.40;;;16.89;59.72
84593;BME280;74832;51.656;5.298;2024-01-30T01:55:37;102588.03;;;16.78;59.89
84593;BME280;74832;51.656;5.298;2024-01-30T01:56:08;102586.21;;;16.78;60.01
84593;BME280;74832;51.656;5.298;2024-01-30T01:56:39;102590.66;;;16.82;59.96
84593;BME280;74832;51.656;5.298;2024-01-30T01:57:09;102588.86;;;16.85;59.83
84593;BME280;74832;51.656;5.298;2024-01-30T01:57:40;102584.96;;;16.90;59.70
84593;BME280;74832;51.656;5.298;2024-01-30T01:58:13;102587.40;;;16.86;59.76
84593;BME280;74832;51.656;5.298;2024-01-30T01:58:44;102587.32;;;16.93;59.58
84593;BME280;74832;51.656;5.298;2024-01-30T01:59:17;102583.72;;;16.93;59.55
84593;BME280;74832;51.656;5.298;2024-01-30T01:59:48;102580.74;;;16.95;59.49
84593;BME280;74832;51.656;5.298;2024-01-30T02:00:19;102583.74;;;16.84;59.75
84593;BME280;74832;51.656;5.298;2024-01-30T02:00:50;102585.06;;;16.90;59.64
84593;BME280;74832;51.656;5.298;2024-01-30T02:01:21;102585.47;;;16.91;59.62
84593;BME280;74832;51.656;5.298;2024-01-30T02:01:55;102577.35;;;16.88;59.69
84593;BME280;74832;51.656;5.298;2024-01-30T02:02:26;102581.23;;;16.89;59.58
84593;BME280;74832;51.656;5.298;2024-01-30T02:03:00;102585.07;;;16.86;59.70
84593;BME280;74832;51.656;5.298;2024-01-30T02:03:30;102582.32;;;16.84;59.75
84593;BME280;74832;51.656;5.298;2024-01-30T02:04:01;102585.87;;;16.86;59.74
84593;BME280;74832;51.656;5.298;2024-01-30T02:04:31;102580.92;;;16.88;59.70
84593;BME280;74832;51.656;5.298;2024-01-30T02:05:02;102582.09;;;16.88;59.62
84593;BME280;74832;51.656;5.298;2024-01-30T02:05:32;102579.29;;;16.86;59.68
84593;BME280;74832;51.656;5.298;2024-01-30T02:06:03;102583.85;;;16.86;59.64
84593;BME280;74832;51.656;5.298;2024-01-30T02:06:34;102582.04;;;16.85;59.76
84593;BME280;74832;51.656;5.298;2024-01-30T02:07:05;102582.50;;;16.90;59.61
84593;BME280;74832;51.656;5.298;2024-01-30T02:07:35;102579.10;;;16.83;59.77
84593;BME280;74832;51.656;5.298;2024-01-30T02:08:06;102578.50;;;16.84;59.68
84593;BME280;74832;51.656;5.298;2024-01-30T02:08:37;102579.61;;;16.84;59.72
84593;BME280;74832;51.656;5.298;2024-01-30T02:09:07;102576.27;;;16.85;59.70
84593;BME280;74832;51.656;5.298;2024-01-30T02:09:38;102575.45;;;16.83;59.73
84593;BME280;74832;51.656;5.298;2024-01-30T02:10:08;102578.24;;;16.87;59.61
84593;BME280;74832;51.656;5.298;2024-01-30T02:10:39;102576.15;;;16.86;59.62
84593;BME280;74832;51.656;5.298;2024-01-30T02:11:10;102579.78;;;16.87;59.62
84593;BME280;74832;51.656;5.298;2024-01-30T02:11:40;102577.66;;;16.87;59.60
84593;BME280;74832;51.656;5.298;2024-01-30T02:12:11;102578.17;;;16.81;59.78
84593;BME280;74832;51.656;5.298;2024-01-30T02:12:42;102579.07;;;16.88;59.64
84593;BME280;74832;51.656;5.298;2024-01-30T02:13:12;102580.28;;;16.78;59.83
84593;BME280;74832;51.656;5.298;2024-01-30T02:13:42;102577.01;;;16.84;59.72
84593;BME280;74832;51.656;5.298;2024-01-30T02:14:13;102578.05;;;16.87;59.64
84593;BME280;74832;51.656;5.298;2024-01-30T02:14:45;102581.08;;;16.91;59.48
84593;BME280;74832;51.656;5.298;2024-01-30T02:15:15;102580.05;;;16.83;59.64
84593;BME280;74832;51.656;5.298;2024-01-30T02:15:49;102576.85;;;16.81;59.77
84593;BME280;74832;51.656;5.298;2024-01-30T02:16:19;102576.83;;;16.77;59.88
84593;BME280;74832;51.656;5.298;2024-01-30T02:16:50;102577.47;;;16.79;59.86
84593;BME280;74832;51.656;5.298;2024-01-30T02:17:20;102578.07;;;16.80;59.79
84593;BME280;74832;51.656;5.298;2024-01-30T02:17:50;102576.58;;;16.79;59.79
84593;BME280;74832;51.656;5.298;2024-01-30T02:18:22;102579.37;;;16.84;59.69
84593;BME280;74832;51.656;5.298;2024-01-30T02:18:53;102578.64;;;16.87;59.59
84593;BME280;74832;51.656;5.298;2024-01-30T02:19:23;102581.77;;;16.83;59.68
84593;BME280;74832;51.656;5.298;2024-01-30T02:19:53;102581.25;;;16.83;59.66
84593;BME280;74832;51.656;5.298;2024-01-30T02:20:25;102579.76;;;16.84;59.64
84593;BME280;74832;51.656;5.298;2024-01-30T02:20:56;102579.22;;;16.86;59.61
84593;BME280;74832;51.656;5.298;2024-01-30T02:21:28;102580.61;;;16.81;59.68
84593;BME280;74832;51.656;5.298;2024-01-30T02:21:58;102578.82;;;16.75;59.84
84593;BME280;74832;51.656;5.298;2024-01-30T02:22:29;102583.54;;;16.76;59.82
84593;BME280;74832;51.656;5.298;2024-01-30T02:23:00;102584.46;;;16.83;59.71
84593;BME280;74832;51.656;5.298;2024-01-30T02:23:33;102585.62;;;16.81;59.75
84593;BME280;74832;51.656;5.298;2024-01-30T02:24:04;102583.12;;;16.84;59.64
84593;BME280;74832;51.656;5.298;2024-01-30T02:24:35;102586.63;;;16.77;59.78
84593;BME280;74832;51.656;5.298;2024-01-30T02:25:06;102584.74;;;16.75;59.84
84593;BME280;74832;51.656;5.298;2024-01-30T02:25:39;102588.66;;;16.84;59.66
84593;BME280;74832;51.656;5.298;2024-01-30T02:26:10;102587.18;;;16.81;59.71
84593;BME280;74832;51.656;5.298;2024-01-30T02:26:40;102588.58;;;16.78;59.81
84593;BME280;74832;51.656;5.298;2024-01-30T02:27:11;102584.49;;;16.86;59.62
84593;BME280;74832;51.656;5.298;2024-01-30T02:27:41;102584.62;;;16.81;59.68
84593;BME280;74832;51.656;5.298;2024-01-30T02:28:12;102583.47;;;16.85;59.62
84593;BME280;74832;51.656;5.298;2024-01-30T02:28:42;102583.73;;;16.81;59.69
84593;BME280;74832;51.656;5.298;2024-01-30T02:29:12;102587.18;;;16.86;59.58
84593;BME280;74832;51.656;5.298;2024-01-30T02:29:43;102584.90;;;16.86;59.52
84593;BME280;74832;51.656;5.298;2024-01-30T02:30:13;102580.56;;;16.81;59.67
84593;BME280;74832;51.656;5.298;2024-01-30T02:30:44;102579.03;;;16.71;59.89
84593;BME280;74832;51.656;5.298;2024-01-30T02:31:15;102582.22;;;16.78;59.84
84593;BME280;74832;51.656;5.298;2024-01-30T02:31:45;102583.11;;;16.81;59.63
84593;BME280;74832;51.656;5.298;2024-01-30T02:32:16;102584.50;;;16.86;59.55
84593;BME280;74832;51.656;5.298;2024-01-30T02:32:46;102586.44;;;16.86;59.57
84593;BME280;74832;51.656;5.298;2024-01-30T02:33:17;102583.14;;;16.81;59.66
84593;BME280;74832;51.656;5.298;2024-01-30T02:33:47;102584.32;;;16.83;59.62
84593;BME280;74832;51.656;5.298;2024-01-30T02:34:18;102584.13;;;16.81;59.65
84593;BME280;74832;51.656;5.298;2024-01-30T02:34:49;102583.31;;;16.81;59.66
84593;BME280;74832;51.656;5.298;2024-01-30T02:35:19;102584.56;;;16.84;59.61
84593;BME280;74832;51.656;5.298;2024-01-30T02:35:50;102582.76;;;16.86;59.49
84593;BME280;74832;51.656;5.298;2024-01-30T02:36:20;102584.34;;;16.82;59.63
84593;BME280;74832;51.656;5.298;2024-01-30T02:36:51;102584.30;;;16.79;59.68
84593;BME280;74832;51.656;5.298;2024-01-30T02:37:21;102583.40;;;16.77;59.74
84593;BME280;74832;51.656;5.298;2024-01-30T02:37:51;102580.78;;;16.79;59.67
84593;BME280;74832;51.656;5.298;2024-01-30T02:38:22;102581.63;;;16.74;59.77
84593;BME280;74832;51.656;5.298;2024-01-30T02:38:52;102580.31;;;16.77;59.75
84593;BME280;74832;51.656;5.298;2024-01-30T02:39:23;102582.40;;;16.75;59.80
84593;BME280;74832;51.656;5.298;2024-01-30T02:39:53;102578.18;;;16.76;59.78